Arrange by
Date
Date
Title
Job #
Location
Descending   Sign Up for Job Agent Sign-up for Job Agent Jobs through RSS RSS Feed
Date Title Job # Location
03/30/2020 Marketing Manager : 20-0103 20-01033 Dulles, Virginia
03/30/2020 ETL Informatica Developer : 20-01070 20-01070 Burbank, California
03/30/2020 Business Operations Manager : 20-00212 20-00212 San Mateo, California
03/30/2020 IT - Developer - SAP Finance HANA ABAP Developer : 20-01060 20-01060 Woodland Hills, California
03/30/2020 Business Systems Analyst III -- 604 : GTS Enterprise Applications : 20-01047 20-01047 Frisco, Texas
03/30/2020 EBS Developer : 20-00958 20-00958 Minneapolis, Minnesota
03/30/2020 Workday Functional Consultant -- HR OPERATIONS : 20-01098 20-01098 Frisco, Texas
03/30/2020 Business Systems Analyst III -- 607 : GTS Enterprise Programs & Analytics: 20-01096 20-01096 Sunnyvale, California
03/30/2020 IT - Web Developer/Full Stack Engineer : 20-00910 20-00910 Woodland Hills, California
03/30/2020 Software Developer IV : 20-00923 20-00923 Chandler, Arizona
03/30/2020 GIS Security Engineer (Data Security Engineer) : 20-00756 20-00756 San Jose, California
03/30/2020 Guidewire PolicyCenter Developer II : 20-00908 20-00908 Oklahoma City, Oklahoma
03/30/2020 Director of Product Management - eCommerce : 20-00893 20-00893 Charlotte, North Carolina
03/30/2020 Senior Software Dev Engineer : 20-00867 20-00867 Dulles, Virginia
03/30/2020 Engineer, Senior Software (Non-Payrolled) : 20-01083 20-01083 Columbus, Ohio
03/30/2020 Business Analyst II : 20-00632 20-00632 Bellevue, Washington
03/30/2020 SQL Data Privacy Analyst : 20-00484 20-00484 Woodland Hills, California
03/30/2020 Internet Marketing Rep II : 20-00890 20-00890 Draper, Utah
03/30/2020 Technical Project Manager IV : 20-00876 20-00876 Woodland Hills, California
03/30/2020 Enterprise Data Architect - Finance : 20-00873 20-00873 Woodland Hills, California
03/30/2020 Credit Analyst I : 20-00864 20-00864 Woodland Hills, California
03/30/2020 Training Lab Associate : 20-01095 20-01095 Sunnyvale, California
03/30/2020 SFDC Business Analyst : 20-00704 20-00704 Norcross, Georgia
03/30/2020 Senior Devops Engineer : 20-00717 20-00717 Woodland Hills, California
03/30/2020 Senior User Interface Developer : 20-00695 20-00695 Bellevue, Washington
03/30/2020 Software Engineer : 19-03220 20-00722 Denver, Colorado
03/30/2020 Operations Analyst : 20-00678 20-00678 Tempe, Arizona
03/30/2020 Financial Analyst I : 20-00221 20-00221 Tampa, Florida
03/30/2020 Senior ERP Developer SAP/Oracle : 19-05431 19-05431 Sunnyvale, California
03/30/2020 Senior Business System Analyst : 19-05430 19-05430 Sunnyvale, California
Page:  1 2 3 4 5 6 7 Next     | 1 to 30 of 200 result(s)     records per page